This is the latest recevied weather packets stored in our database for station/object CA3PBK-13. If no packets are shown the sender has not sent any weather packets the latest 1 day(s).
| Time | Temp. | Humidity | Pressure | Rain* | Wind** | Luminosity | Snow |
|---|---|---|---|---|---|---|---|
| 1836274822 | 11.67° C | 96% | 932.3 hPa | 0 mm | 0 m/s | - | - |
| 1836274700 | 11.67° C | 94% | 932.3 hPa | 0 mm | 0 m/s | - | - |
| 1836274580 | 11.67° C | 91% | 932.2 hPa | 0 mm | 0 m/s | - | - |
| 1836274550 | 11.11° C | 99% | 932.3 hPa | 0 mm | 0 m/s | - | - |
| 1836274460 | 12.22° C | 87% | 932.1 hPa | 0 mm | 0 m/s | - | - |
| 1836274430 | 11.11° C | 99% | 932.4 hPa | 0 mm | 0 m/s | - | - |
| 1836274341 | 12.78° C | 79% | 932.1 hPa | 0 mm | 0 m/s | - | - |
| 1836274311 | 11.11° C | 99% | 932.3 hPa | 0 mm | 0 m/s | - | - |
| 1836274222 | 12.78° C | 73% | 932 hPa | 0 mm | 0 m/s | - | - |
| 1836274191 | 11.67° C | 98% | 932.3 hPa | 0 mm | 0 m/s | - | - |
| 1836274100 | 12.78° C | 67% | 932 hPa | 0 mm | 0 m/s | - | - |
| 1836273981 | 12.78° C | 67% | 932 hPa | 0 mm | 0 m/s | - | - |
| 1778039468 | 15° C | 99% | 927.3 hPa | 0 mm | 0 m/s | - | - |
| 1778039348 | 15.56° C | 1% | 927.3 hPa | 0 mm | 0 m/s | - | - |
| 1778039228 | 15.56° C | 99% | 927.3 hPa | 0 mm | 0 m/s | - | - |
| 1778039110 | 15.56° C | 99% | 927.2 hPa | 0 mm | 0 m/s | - | - |
| 1778038988 | 15.56° C | 99% | 927.3 hPa | 0 mm | 0 m/s | - | - |
| 1778038868 | 15.56° C | 1% | 927.3 hPa | 0 mm | 0 m/s | - | - |
| 1778038748 | 15.56° C | 1% | 927.3 hPa | 0 mm | 0 m/s | - | - |
| 1778038629 | 15.56° C | 1% | 927.3 hPa | 0 mm | 0 m/s | - | - |
| 1778038510 | 15° C | 1% | 927.3 hPa | 0 mm | 0 m/s | - | - |
| 1778038388 | 15° C | 1% | 927.2 hPa | 0 mm | 0 m/s | - | - |
| 1778038268 | 15.56° C | 99% | 927.3 hPa | 0 mm | 0 m/s | - | - |
| 1778038148 | 15.56° C | 99% | 927.3 hPa | 0 mm | 0 m/s | - | - |
| 1778037910 | 15.56° C | 99% | 927.3 hPa | 0 mm | 0 m/s | - | - |
* Rain latest hour (hover to see other rain measurements)
** Current wind speed in m/s (hover to see current wind gust speed)